Time;durP1;ratioP1;P1;durP2;ratioP2;P2;SDS_P1;SDS_P2;PMS_P1;PMS_P2;Temp;Humidity;BMP_temperature;BMP_pressure;BME280_temperature;BME280_humidity;BME280_pressure;Samples;Min_cycle;Max_cycle;Signal;HPM_P1;HPM_P2
2021/08/21 00:00:52;;;;;;;19.03;17.10;;;;;;;;;;5097011;28;20791;-71
2021/08/21 00:03:19;;;;;;;19.33;16.60;;;;;;;;;;5096905;28;20444;-71
2021/08/21 00:05:48;;;;;;;18.10;16.23;;;;;;;;;;5096779;28;20941;-71
2021/08/21 00:08:15;;;;;;;17.80;16.03;;;;;;;;;;5096903;28;20446;-72
2021/08/21 00:10:42;;;;;;;17.40;15.60;;;;;;;;;;5096720;28;20433;-72
2021/08/21 00:13:09;;;;;;;16.33;14.73;;;;;;;;;;5096262;28;21132;-72
2021/08/21 00:15:37;;;;;;;17.03;15.23;;;;;;;;;;5096380;28;20447;-71
2021/08/21 00:18:04;;;;;;;17.10;15.30;;;;;;;;;;5096559;28;20986;-72
2021/08/21 00:20:31;;;;;;;17.80;15.90;;;;;;;;;;5096294;28;20439;-72
2021/08/21 00:23:00;;;;;;;19.93;15.20;;;;;;;;;;5096309;28;20474;-71
2021/08/21 00:25:27;;;;;;;16.70;15.10;;;;;;;;;;5096349;28;20527;-72
2021/08/21 00:27:54;;;;;;;16.50;14.90;;;;;;;;;;5097126;28;20440;-73
2021/08/21 00:30:21;;;;;;;16.40;14.63;;;;;;;;;;5097199;28;20441;-73
2021/08/21 00:32:50;;;;;;;17.30;14.07;;;;;;;;;;5095974;28;20433;-72
2021/08/21 00:35:17;;;;;;;16.07;14.43;;;;;;;;;;5096020;28;20470;-71
2021/08/21 00:37:44;;;;;;;15.77;13.67;;;;;;;;;;5096183;28;20563;-72
2021/08/21 00:40:14;;;;;;;16.80;15.00;;;;;;;;;;5096168;28;20436;-72
2021/08/21 00:42:41;;;;;;;20.80;15.10;;;;;;;;;;5096090;28;20449;-72
2021/08/21 00:45:08;;;;;;;18.03;15.63;;;;;;;;;;5096119;28;20442;-72
2021/08/21 00:47:36;;;;;;;17.47;15.67;;;;;;;;;;5096083;28;20447;-72
2021/08/21 00:50:03;;;;;;;17.13;15.20;;;;;;;;;;5095780;28;20440;-72
2021/08/21 00:52:30;;;;;;;17.67;15.97;;;;;;;;;;5095472;28;20510;-72
2021/08/21 00:54:58;;;;;;;18.27;15.00;;;;;;;;;;5095767;28;20771;-72
2021/08/21 00:57:27;;;;;;;15.70;14.20;;;;;;;;;;5095453;28;20567;-72
2021/08/21 00:59:55;;;;;;;16.67;15.07;;;;;;;;;;5095786;28;20436;-72
2021/08/21 01:02:22;;;;;;;18.27;16.10;;;;;;;;;;5095727;28;20523;-73
2021/08/21 01:04:51;;;;;;;17.03;15.17;;;;;;;;;;5095924;28;20459;-72
2021/08/21 01:07:19;;;;;;;18.20;16.50;;;;;;;;;;5095721;28;20534;-72
2021/08/21 01:09:47;;;;;;;17.40;15.60;;;;;;;;;;5095625;28;20443;-72
2021/08/21 01:12:14;;;;;;;16.43;14.73;;;;;;;;;;5095657;28;20448;-71
2021/08/21 01:14:44;;;;;;;16.80;15.17;;;;;;;;;;5095231;28;20444;-70
2021/08/21 01:17:11;;;;;;;17.93;15.83;;;;;;;;;;5095392;28;20473;-70
2021/08/21 01:19:39;;;;;;;17.40;14.63;;;;;;;;;;5095095;28;20441;-70
2021/08/21 01:22:07;;;;;;;18.27;15.60;;;;;;;;;;5095228;28;20471;-70
2021/08/21 01:24:35;;;;;;;19.93;15.87;;;;;;;;;;5095148;28;20439;-70
2021/08/21 01:27:03;;;;;;;20.53;17.17;;;;;;;;;;5094994;28;20435;-71
2021/08/21 01:29:31;;;;;;;18.07;16.27;;;;;;;;;;5095275;28;20470;-70
2021/08/21 01:31:58;;;;;;;20.37;16.00;;;;;;;;;;5094893;28;20451;-70
2021/08/21 01:34:25;;;;;;;17.80;15.90;;;;;;;;;;5094735;28;20835;-71
2021/08/21 01:36:53;;;;;;;24.33;16.73;;;;;;;;;;5095261;28;20557;-71
2021/08/21 01:39:20;;;;;;;18.20;16.30;;;;;;;;;;5095095;28;20442;-70
2021/08/21 01:41:48;;;;;;;19.67;17.57;;;;;;;;;;5095338;28;20440;-70
2021/08/21 01:44:17;;;;;;;18.23;16.43;;;;;;;;;;5094072;28;20950;-71
2021/08/21 01:46:46;;;;;;;18.37;16.17;;;;;;;;;;5094698;28;20436;-70
2021/08/21 01:49:14;;;;;;;20.40;17.40;;;;;;;;;;5094553;28;20933;-70
2021/08/21 01:51:42;;;;;;;18.50;16.43;;;;;;;;;;5094854;28;20790;-70
2021/08/21 01:54:10;;;;;;;18.07;15.50;;;;;;;;;;5094422;28;20447;-70
2021/08/21 01:56:44;;;;;;;21.07;16.60;;;;;;;;;;5094394;28;20447;-71
2021/08/21 01:59:18;;;;;;;19.30;17.30;;;;;;;;;;5094244;28;20977;-71
2021/08/21 02:01:47;;;;;;;19.43;17.43;;;;;;;;;;5094372;28;20901;-71
2021/08/21 02:04:14;;;;;;;20.47;18.33;;;;;;;;;;5094501;28;20452;-70
2021/08/21 02:06:42;;;;;;;21.67;18.93;;;;;;;;;;5094558;28;20432;-71
2021/08/21 02:09:09;;;;;;;19.50;17.43;;;;;;;;;;5094513;28;20501;-70
2021/08/21 02:11:36;;;;;;;22.33;18.00;;;;;;;;;;5094525;28;20441;-71
2021/08/21 02:14:03;;;;;;;20.10;18.00;;;;;;;;;;5094162;28;20442;-71
2021/08/21 02:16:31;;;;;;;18.07;16.27;;;;;;;;;;5094107;28;20869;-71
2021/08/21 02:18:59;;;;;;;22.03;15.67;;;;;;;;;;5094285;28;20475;-71
2021/08/21 02:21:26;;;;;;;20.43;17.70;;;;;;;;;;5094630;28;20436;-71
2021/08/21 02:23:55;;;;;;;18.67;16.47;;;;;;;;;;5094159;28;20464;-70
2021/08/21 02:26:22;;;;;;;18.67;16.87;;;;;;;;;;5093924;28;20449;-71
2021/08/21 02:28:49;;;;;;;21.37;17.10;;;;;;;;;;5093850;28;20945;-71
2021/08/21 02:31:17;;;;;;;20.40;17.40;;;;;;;;;;5094220;28;20792;-72
2021/08/21 02:33:44;;;;;;;19.07;15.83;;;;;;;;;;5093859;28;20441;-71
2021/08/21 02:36:13;;;;;;;23.27;16.80;;;;;;;;;;5094020;28;20452;-72
2021/08/21 02:38:40;;;;;;;19.87;17.60;;;;;;;;;;5093617;28;20474;-71
2021/08/21 02:41:07;;;;;;;19.47;17.57;;;;;;;;;;5093644;28;20929;-71
2021/08/21 02:43:35;;;;;;;18.43;16.50;;;;;;;;;;5093742;28;20432;-71
2021/08/21 02:46:02;;;;;;;20.63;17.20;;;;;;;;;;5094304;28;20447;-71
2021/08/21 02:48:29;;;;;;;20.03;17.93;;;;;;;;;;5093966;28;20440;-71
2021/08/21 02:50:56;;;;;;;19.93;17.83;;;;;;;;;;5093549;28;20451;-71
2021/08/21 02:53:25;;;;;;;22.30;16.53;;;;;;;;;;5094073;28;20438;-71
2021/08/21 02:55:52;;;;;;;18.80;16.77;;;;;;;;;;5092706;28;20446;-71
2021/08/21 02:58:37;;;;;;;16.67;14.97;;;;;;;;;;5092850;28;20470;-71
2021/08/21 03:01:05;;;;;;;17.57;15.77;;;;;;;;;;5093919;28;20865;-71
2021/08/21 03:03:32;;;;;;;23.50;17.37;;;;;;;;;;5093963;28;20917;-71
2021/08/21 03:05:59;;;;;;;21.23;16.60;;;;;;;;;;5093469;28;20432;-70
2021/08/21 03:08:28;;;;;;;19.90;17.63;;;;;;;;;;5093402;28;20797;-71
2021/08/21 03:10:55;;;;;;;18.30;16.30;;;;;;;;;;5093615;28;20435;-71
2021/08/21 03:13:23;;;;;;;19.90;17.07;;;;;;;;;;5093248;28;20926;-70
2021/08/21 03:15:50;;;;;;;18.77;16.67;;;;;;;;;;5093320;28;20478;-71
2021/08/21 03:18:17;;;;;;;17.20;15.40;;;;;;;;;;5093635;28;20505;-71
2021/08/21 03:20:44;;;;;;;21.17;17.60;;;;;;;;;;5093747;28;20447;-72
2021/08/21 03:23:11;;;;;;;17.77;15.90;;;;;;;;;;5093706;28;20475;-71
2021/08/21 03:25:40;;;;;;;18.83;16.70;;;;;;;;;;5093376;28;20440;-71
2021/08/21 03:28:07;;;;;;;23.40;17.20;;;;;;;;;;5094080;28;20448;-71
2021/08/21 03:30:34;;;;;;;19.23;16.70;;;;;;;;;;5093689;28;20446;-71
2021/08/21 03:33:01;;;;;;;20.50;16.70;;;;;;;;;;5093325;28;20458;-71
2021/08/21 03:35:28;;;;;;;19.73;17.63;;;;;;;;;;5093023;28;20893;-71
2021/08/21 03:37:56;;;;;;;17.50;15.50;;;;;;;;;;5093266;28;20495;-71
2021/08/21 03:40:23;;;;;;;20.70;17.13;;;;;;;;;;5093753;28;20495;-71
2021/08/21 03:42:52;;;;;;;18.93;16.93;;;;;;;;;;5093773;28;20452;-71
2021/08/21 03:45:19;;;;;;;20.13;17.87;;;;;;;;;;5093223;28;20934;-72
2021/08/21 03:47:47;;;;;;;20.77;17.67;;;;;;;;;;5092952;28;20441;-71
2021/08/21 03:50:14;;;;;;;19.93;17.83;;;;;;;;;;5093665;28;20447;-71
2021/08/21 03:52:41;;;;;;;21.93;17.20;;;;;;;;;;5092896;28;20455;-71
2021/08/21 03:55:09;;;;;;;23.57;17.87;;;;;;;;;;5092832;28;20857;-71
2021/08/21 03:57:36;;;;;;;20.47;17.90;;;;;;;;;;5093433;28;20445;-72
2021/08/21 04:00:05;;;;;;;23.30;19.27;;;;;;;;;;5093128;28;20546;-71
2021/08/21 04:02:32;;;;;;;25.33;19.67;;;;;;;;;;5093082;28;20440;-71
2021/08/21 04:05:00;;;;;;;21.13;18.60;;;;;;;;;;5093339;28;20450;-71
2021/08/21 04:07:27;;;;;;;29.30;21.00;;;;;;;;;;5092788;28;20449;-71
2021/08/21 04:09:54;;;;;;;22.70;19.73;;;;;;;;;;5096530;28;20930;-74
2021/08/21 04:12:21;;;;;;;26.47;21.23;;;;;;;;;;5096491;28;20960;-73
2021/08/21 04:14:48;;;;;;;27.57;22.93;;;;;;;;;;5097280;28;20851;-73
2021/08/21 04:17:17;;;;;;;25.40;20.60;;;;;;;;;;5096396;28;20767;-73
2021/08/21 04:19:44;;;;;;;25.57;18.90;;;;;;;;;;5096273;28;20984;-72
2021/08/21 04:22:11;;;;;;;25.37;20.07;;;;;;;;;;5096599;28;20445;-72
2021/08/21 04:24:39;;;;;;;21.17;18.57;;;;;;;;;;5096704;28;20428;-72
2021/08/21 04:27:06;;;;;;;20.80;17.60;;;;;;;;;;5096302;28;20458;-72
2021/08/21 04:29:33;;;;;;;23.60;17.93;;;;;;;;;;5096441;28;20448;-72
2021/08/21 04:32:00;;;;;;;21.43;18.73;;;;;;;;;;5096115;28;20446;-72
2021/08/21 04:34:34;;;;;;;25.57;20.17;;;;;;;;;;5094217;28;20441;-74
2021/08/21 04:37:01;;;;;;;25.17;18.20;;;;;;;;;;5094599;28;20455;-72
2021/08/21 04:39:28;;;;;;;19.50;16.97;;;;;;;;;;5094996;28;20481;-72
2021/08/21 04:41:55;;;;;;;22.23;18.33;;;;;;;;;;5095046;28;20445;-72
2021/08/21 04:44:22;;;;;;;27.87;19.10;;;;;;;;;;5096011;28;20447;-73
2021/08/21 04:46:49;;;;;;;26.37;19.00;;;;;;;;;;5095481;28;20448;-73
2021/08/21 04:49:17;;;;;;;23.90;20.63;;;;;;;;;;5095026;28;20446;-73
2021/08/21 04:51:46;;;;;;;25.53;21.20;;;;;;;;;;5095591;28;20433;-73
2021/08/21 04:54:13;;;;;;;27.93;19.47;;;;;;;;;;5094796;28;20454;-73
2021/08/21 04:56:40;;;;;;;28.10;20.47;;;;;;;;;;5094542;28;20454;-73
2021/08/21 04:59:07;;;;;;;22.50;20.13;;;;;;;;;;5095035;28;20504;-73
2021/08/21 05:01:34;;;;;;;23.03;19.27;;;;;;;;;;5095197;28;20533;-73
2021/08/21 05:04:01;;;;;;;27.50;20.40;;;;;;;;;;5094506;28;20933;-73
2021/08/21 05:06:29;;;;;;;26.90;20.83;;;;;;;;;;5075219;28;20807;-73
2021/08/21 05:08:57;;;;;;;22.63;20.23;;;;;;;;;;5075414;28;20453;-73
2021/08/21 05:11:24;;;;;;;30.00;19.77;;;;;;;;;;5075063;28;20442;-73
2021/08/21 05:13:52;;;;;;;25.87;19.27;;;;;;;;;;5075074;28;20456;-73
2021/08/21 05:16:20;;;;;;;22.30;18.37;;;;;;;;;;5074970;28;20527;-73
2021/08/21 05:18:50;;;;;;;21.30;19.00;;;;;;;;;;5074458;28;20494;-74
2021/08/21 05:21:26;;;;;;;26.83;21.87;;;;;;;;;;5074637;28;20541;-73
2021/08/21 05:23:53;;;;;;;29.40;21.00;;;;;;;;;;5075368;28;20476;-73
2021/08/21 05:26:22;;;;;;;29.03;21.60;;;;;;;;;;5074822;28;20533;-73
2021/08/21 05:28:49;;;;;;;26.20;20.33;;;;;;;;;;5075060;28;20441;-80
2021/08/21 05:31:17;;;;;;;23.70;21.13;;;;;;;;;;5074393;28;20497;-73
2021/08/21 05:33:44;;;;;;;20.97;18.33;;;;;;;;;;5074461;28;20441;-73
2021/08/21 05:36:11;;;;;;;22.67;18.30;;;;;;;;;;5073110;28;20536;-73
2021/08/21 05:38:38;;;;;;;24.37;20.07;;;;;;;;;;5074547;28;20475;-73
2021/08/21 05:41:05;;;;;;;27.30;20.50;;;;;;;;;;5074730;28;20443;-73
2021/08/21 05:43:34;;;;;;;28.97;19.93;;;;;;;;;;5074092;28;20448;-73
2021/08/21 05:46:01;;;;;;;25.33;19.77;;;;;;;;;;5074663;28;20524;-72
2021/08/21 05:48:28;;;;;;;25.10;22.20;;;;;;;;;;5074504;28;20450;-73
2021/08/21 05:50:56;;;;;;;27.37;22.13;;;;;;;;;;5071694;28;20459;-73
2021/08/21 05:53:23;;;;;;;28.53;22.60;;;;;;;;;;5072874;28;20447;-72
2021/08/21 05:55:50;;;;;;;30.60;21.40;;;;;;;;;;5073869;28;20452;-73
2021/08/21 05:58:17;;;;;;;27.30;22.30;;;;;;;;;;5073811;28;20447;-73
2021/08/21 06:00:46;;;;;;;27.50;22.20;;;;;;;;;;5073590;28;20462;-73
2021/08/21 06:03:13;;;;;;;22.83;19.07;;;;;;;;;;5073275;28;20445;-73
2021/08/21 06:05:41;;;;;;;23.90;21.30;;;;;;;;;;5073085;28;20444;-73
2021/08/21 06:08:09;;;;;;;30.77;21.40;;;;;;;;;;5073181;28;20443;-73
2021/08/21 06:10:38;;;;;;;26.47;22.00;;;;;;;;;;5072859;28;20503;-73
2021/08/21 06:13:05;;;;;;;27.73;21.87;;;;;;;;;;5074323;28;20449;-73
2021/08/21 06:15:32;;;;;;;30.17;22.37;;;;;;;;;;5073969;28;20518;-72
2021/08/21 06:18:01;;;;;;;25.23;21.93;;;;;;;;;;5073875;28;20776;-73
2021/08/21 06:20:28;;;;;;;26.93;21.80;;;;;;;;;;5072431;28;20478;-74
2021/08/21 06:22:55;;;;;;;28.73;21.80;;;;;;;;;;5073130;28;20484;-73
2021/08/21 06:25:23;;;;;;;28.20;21.00;;;;;;;;;;5073699;28;20436;-73
2021/08/21 06:27:51;;;;;;;30.10;21.80;;;;;;;;;;5073780;28;20531;-73
2021/08/21 06:30:18;;;;;;;26.10;21.90;;;;;;;;;;5073754;28;20847;-73
2021/08/21 06:32:45;;;;;;;27.83;21.60;;;;;;;;;;5073246;28;20441;-73
2021/08/21 06:35:41;;;;;;;31.70;22.97;;;;;;;;;;5073471;28;20527;-72
2021/08/21 06:38:10;;;;;;;26.60;22.60;;;;;;;;;;5069608;28;20445;-72
2021/08/21 06:40:37;;;;;;;30.03;22.83;;;;;;;;;;5073044;28;20477;-73
2021/08/21 06:43:04;;;;;;;28.10;21.40;;;;;;;;;;5072411;28;20442;-75
2021/08/21 06:45:31;;;;;;;27.73;21.07;;;;;;;;;;5072479;28;20443;-71
2021/08/21 06:47:59;;;;;;;28.27;22.40;;;;;;;;;;5072914;28;20526;-72
2021/08/21 06:50:26;;;;;;;27.63;22.33;;;;;;;;;;5071758;28;20442;-72
2021/08/21 06:52:53;;;;;;;28.67;24.07;;;;;;;;;;5073062;28;20816;-72
2021/08/21 06:55:22;;;;;;;32.90;24.03;;;;;;;;;;5073600;28;20484;-75
2021/08/21 06:57:49;;;;;;;29.20;22.67;;;;;;;;;;5073374;28;20529;-73
2021/08/21 07:00:17;;;;;;;31.43;24.00;;;;;;;;;;5073185;28;20473;-72
2021/08/21 07:02:44;;;;;;;31.73;23.73;;;;;;;;;;5072826;28;20447;-72
2021/08/21 07:05:11;;;;;;;26.33;22.10;;;;;;;;;;5073236;28;20908;-72
2021/08/21 07:07:38;;;;;;;26.87;22.90;;;;;;;;;;5073673;28;20443;-72
2021/08/21 07:10:06;;;;;;;35.20;23.77;;;;;;;;;;5073502;28;20453;-72
2021/08/21 07:12:35;;;;;;;32.20;23.47;;;;;;;;;;5072540;28;20964;-72
2021/08/21 07:15:02;;;;;;;34.37;23.37;;;;;;;;;;5073417;28;20788;-72
2021/08/21 07:17:29;;;;;;;32.40;25.40;;;;;;;;;;5073192;28;20512;-72
2021/08/21 07:19:56;;;;;;;28.87;22.97;;;;;;;;;;5071949;28;20488;-70
2021/08/21 07:22:23;;;;;;;34.57;25.70;;;;;;;;;;5072209;28;20509;-70
2021/08/21 07:24:51;;;;;;;29.67;23.10;;;;;;;;;;5073391;28;20426;-73
2021/08/21 07:27:18;;;;;;;29.30;22.00;;;;;;;;;;5073272;28;20441;-72
2021/08/21 07:29:46;;;;;;;32.27;24.53;;;;;;;;;;5072430;28;20445;-72
2021/08/21 07:32:13;;;;;;;31.10;23.53;;;;;;;;;;5072294;28;20445;-72
2021/08/21 07:34:41;;;;;;;31.73;23.60;;;;;;;;;;5073459;28;20450;-72
2021/08/21 07:37:09;;;;;;;31.97;23.90;;;;;;;;;;5073148;28;20455;-72
2021/08/21 07:39:36;;;;;;;28.03;21.90;;;;;;;;;;5072698;28;20484;-73
2021/08/21 07:42:03;;;;;;;28.80;23.50;;;;;;;;;;5072314;28;20443;-74
2021/08/21 07:44:30;;;;;;;28.10;23.63;;;;;;;;;;5076060;28;20446;-73
2021/08/21 07:46:59;;;;;;;28.83;21.83;;;;;;;;;;5076873;28;20449;-74
2021/08/21 07:49:26;;;;;;;30.50;24.00;;;;;;;;;;5076208;28;20457;-73
2021/08/21 07:51:53;;;;;;;32.20;24.33;;;;;;;;;;5075184;28;20449;-73
2021/08/21 07:54:20;;;;;;;29.57;24.97;;;;;;;;;;5092886;28;20433;-73
2021/08/21 07:56:48;;;;;;;29.33;23.47;;;;;;;;;;5096465;28;20436;-73
2021/08/21 07:59:15;;;;;;;29.37;20.30;;;;;;;;;;5096415;28;20452;-72
2021/08/21 08:01:42;;;;;;;33.50;23.10;;;;;;;;;;5096411;28;20810;-73
2021/08/21 08:04:10;;;;;;;28.03;22.30;;;;;;;;;;5096765;28;20546;-72
2021/08/21 08:06:38;;;;;;;27.20;20.73;;;;;;;;;;5096598;28;20804;-73
2021/08/21 08:09:05;;;;;;;25.10;21.27;;;;;;;;;;5097268;28;20446;-73
2021/08/21 08:11:32;;;;;;;28.60;22.37;;;;;;;;;;5096806;28;20441;-73
2021/08/21 08:13:59;;;;;;;26.60;20.27;;;;;;;;;;5096277;28;21003;-73
2021/08/21 08:16:27;;;;;;;26.37;21.93;;;;;;;;;;5096659;28;20534;-73
2021/08/21 08:18:54;;;;;;;25.87;22.03;;;;;;;;;;5096373;28;20443;-73
2021/08/21 08:21:22;;;;;;;28.70;21.63;;;;;;;;;;5093817;28;20824;-72
2021/08/21 08:23:51;;;;;;;23.80;20.70;;;;;;;;;;5096149;28;20557;-73
2021/08/21 08:26:18;;;;;;;21.63;19.30;;;;;;;;;;5096564;28;20899;-73
2021/08/21 08:28:45;;;;;;;24.43;20.50;;;;;;;;;;5096137;28;20939;-73
2021/08/21 08:31:13;;;;;;;32.13;19.50;;;;;;;;;;5096189;28;20447;-73
2021/08/21 08:33:40;;;;;;;25.40;20.57;;;;;;;;;;5096618;28;20486;-73
2021/08/21 08:36:07;;;;;;;25.73;20.67;;;;;;;;;;5096403;28;20844;-73
2021/08/21 08:38:36;;;;;;;24.97;19.57;;;;;;;;;;5096132;28;20790;-73
2021/08/21 08:41:05;;;;;;;22.27;19.70;;;;;;;;;;5096129;28;20480;-73
2021/08/21 08:43:32;;;;;;;21.57;19.27;;;;;;;;;;5095856;28;20878;-73
2021/08/21 08:46:00;;;;;;;21.57;18.83;;;;;;;;;;5096295;28;20449;-73
2021/08/21 08:48:28;;;;;;;22.90;18.73;;;;;;;;;;5096162;28;20450;-72
2021/08/21 08:50:56;;;;;;;23.73;18.80;;;;;;;;;;5090822;28;20463;-73
2021/08/21 08:53:23;;;;;;;20.30;17.17;;;;;;;;;;5074882;28;20968;-72
2021/08/21 08:55:51;;;;;;;19.90;16.70;;;;;;;;;;5074557;28;20537;-73
2021/08/21 08:58:18;;;;;;;20.43;18.10;;;;;;;;;;5074945;28;20806;-73
2021/08/21 09:00:47;;;;;;;21.60;18.40;;;;;;;;;;5075461;28;20978;-73
2021/08/21 09:03:19;;;;;;;22.17;18.07;;;;;;;;;;5075423;28;20484;-73
2021/08/21 09:05:47;;;;;;;21.80;18.00;;;;;;;;;;5074884;28;20792;-73
2021/08/21 09:08:21;;;;;;;21.00;17.60;;;;;;;;;;5075188;28;20969;-74
2021/08/21 09:10:48;;;;;;;20.33;16.17;;;;;;;;;;5075499;28;20493;-73
2021/08/21 09:13:19;;;;;;;21.60;18.27;;;;;;;;;;5074688;28;20448;-73
2021/08/21 09:15:47;;;;;;;22.97;19.17;;;;;;;;;;5074580;28;20465;-73
2021/08/21 09:18:14;;;;;;;21.50;19.17;;;;;;;;;;5074797;28;20441;-73
2021/08/21 09:20:56;;;;;;;22.53;18.87;;;;;;;;;;5074840;28;20657;-72
2021/08/21 09:23:24;;;;;;;22.63;19.37;;;;;;;;;;5073837;28;20464;-72
2021/08/21 09:25:52;;;;;;;27.40;19.10;;;;;;;;;;5074992;28;20471;-73
2021/08/21 09:28:22;;;;;;;21.47;18.90;;;;;;;;;;5074978;28;20454;-73
2021/08/21 09:30:49;;;;;;;24.50;19.07;;;;;;;;;;5074349;28;20444;-73
2021/08/21 09:33:18;;;;;;;20.97;17.03;;;;;;;;;;5074431;28;20448;-73
2021/08/21 09:35:45;;;;;;;23.67;17.47;;;;;;;;;;5074226;28;20539;-73
2021/08/21 09:38:12;;;;;;;23.53;20.50;;;;;;;;;;5074541;28;20789;-73
2021/08/21 09:40:40;;;;;;;25.03;18.67;;;;;;;;;;5074076;28;20473;-73
2021/08/21 09:43:09;;;;;;;20.93;17.37;;;;;;;;;;5074008;28;20543;-73
2021/08/21 09:45:39;;;;;;;20.53;17.63;;;;;;;;;;5074155;28;20490;-73
2021/08/21 09:48:07;;;;;;;23.13;18.10;;;;;;;;;;5074119;28;20420;-74
2021/08/21 09:50:35;;;;;;;20.77;16.60;;;;;;;;;;5074376;28;20452;-74
2021/08/21 09:53:03;;;;;;;23.10;18.30;;;;;;;;;;5072693;28;20445;-73
2021/08/21 09:55:31;;;;;;;19.20;14.20;;;;;;;;;;5073505;28;20455;-72
2021/08/21 09:58:02;;;;;;;17.20;14.00;;;;;;;;;;5074736;28;20437;-74
2021/08/21 10:00:29;;;;;;;17.30;14.23;;;;;;;;;;5073724;28;20454;-74
2021/08/21 10:02:58;;;;;;;16.67;12.53;;;;;;;;;;5074499;28;20234;-74
2021/08/21 10:05:25;;;;;;;14.37;12.37;;;;;;;;;;5073479;28;20458;-73
2021/08/21 10:07:57;;;;;;;14.43;11.40;;;;;;;;;;5073997;28;20523;-73
2021/08/21 10:10:24;;;;;;;11.77;10.53;;;;;;;;;;5074718;28;20460;-72
2021/08/21 10:12:54;;;;;;;11.10;9.90;;;;;;;;;;5074328;28;20452;-72
2021/08/21 10:15:22;;;;;;;13.90;12.40;;;;;;;;;;5073664;28;20440;-72
2021/08/21 10:17:50;;;;;;;13.10;11.77;;;;;;;;;;5074287;28;20870;-72
2021/08/21 10:20:19;;;;;;;13.47;11.93;;;;;;;;;;5073403;28;20468;-72
2021/08/21 10:22:46;;;;;;;17.07;12.90;;;;;;;;;;5073501;28;20473;-72
2021/08/21 10:25:14;;;;;;;12.57;11.40;;;;;;;;;;5072356;28;20507;-73
2021/08/21 10:27:44;;;;;;;11.40;10.23;;;;;;;;;;5073948;28;20441;-72
2021/08/21 10:30:14;;;;;;;16.70;13.20;;;;;;;;;;5073606;28;20439;-73
2021/08/21 10:32:42;;;;;;;12.93;10.87;;;;;;;;;;5073579;28;20476;-72
2021/08/21 10:35:10;;;;;;;14.40;9.23;;;;;;;;;;5073588;28;20442;-72
2021/08/21 10:37:39;;;;;;;10.70;8.60;;;;;;;;;;5073545;28;20476;-73
2021/08/21 10:40:33;;;;;;;9.33;8.13;;;;;;;;;;5073051;28;20487;-72
2021/08/21 10:43:01;;;;;;;9.93;8.93;;;;;;;;;;5026344;28;20806;-72
2021/08/21 10:45:46;;;;;;;12.53;11.33;;;;;;;;;;5073039;28;20438;-72
2021/08/21 10:48:14;;;;;;;16.50;12.33;;;;;;;;;;5073618;28;20443;-72
2021/08/21 10:50:45;;;;;;;19.07;11.20;;;;;;;;;;5073744;28;20781;-72
2021/08/21 10:53:21;;;;;;;13.67;11.20;;;;;;;;;;5073341;28;20453;-72
2021/08/21 10:55:48;;;;;;;12.93;11.70;;;;;;;;;;5071972;28;20441;-72
2021/08/21 10:58:17;;;;;;;11.10;10.00;;;;;;;;;;5072809;28;20446;-73
2021/08/21 11:00:45;;;;;;;11.67;10.30;;;;;;;;;;5073451;28;20482;-73
2021/08/21 11:03:13;;;;;;;13.17;11.87;;;;;;;;;;5073951;28;20978;-72
2021/08/21 11:05:54;;;;;;;13.30;12.00;;;;;;;;;;5073242;28;20436;-72
2021/08/21 11:08:23;;;;;;;12.47;10.77;;;;;;;;;;5073847;28;20453;-72
2021/08/21 11:11:10;;;;;;;13.40;11.00;;;;;;;;;;5072929;28;20461;-73
2021/08/21 11:13:47;;;;;;;12.80;11.50;;;;;;;;;;5073137;28;20997;-73
2021/08/21 11:16:15;;;;;;;11.67;10.40;;;;;;;;;;5073393;28;20463;-73
2021/08/21 11:18:45;;;;;;;14.70;9.87;;;;;;;;;;5075576;28;20524;-73
2021/08/21 11:21:31;;;;;;;11.73;8.73;;;;;;;;;;5077064;28;20472;-73
2021/08/21 11:23:59;;;;;;;11.10;10.00;;;;;;;;;;5078042;28;20558;-73
2021/08/21 11:26:26;;;;;;;10.17;9.07;;;;;;;;;;5075766;28;20456;-74
2021/08/21 11:29:06;;;;;;;9.50;8.47;;;;;;;;;;5077303;28;20459;-74
2021/08/21 11:31:48;;;;;;;9.63;8.73;;;;;;;;;;5077144;28;20470;-74
2021/08/21 11:34:15;;;;;;;9.77;8.87;;;;;;;;;;5077209;28;20801;-74
2021/08/21 11:36:43;;;;;;;11.33;8.00;;;;;;;;;;5076763;28;21022;-74
2021/08/21 11:39:11;;;;;;;8.40;7.37;;;;;;;;;;5076847;28;20939;-74
2021/08/21 11:41:39;;;;;;;9.83;7.77;;;;;;;;;;5077040;28;20487;-74
2021/08/21 11:44:06;;;;;;;10.40;7.00;;;;;;;;;;5076784;28;20441;-74
2021/08/21 11:46:33;;;;;;;7.90;7.10;;;;;;;;;;5076238;28;20443;-74
2021/08/21 11:49:07;;;;;;;7.13;6.53;;;;;;;;;;5077251;28;20434;-74
2021/08/21 11:51:38;;;;;;;8.40;7.60;;;;;;;;;;5076641;28;20956;-74
2021/08/21 11:54:05;;;;;;;8.50;7.07;;;;;;;;;;5077261;28;20432;-74
2021/08/21 11:56:34;;;;;;;8.23;7.43;;;;;;;;;;5075114;28;20447;-74
2021/08/21 11:59:08;;;;;;;11.00;7.33;;;;;;;;;;5076214;28;20534;-73
2021/08/21 12:01:37;;;;;;;10.83;6.73;;;;;;;;;;5076525;28;20996;-73
2021/08/21 12:04:23;;;;;;;9.40;6.50;;;;;;;;;;5076840;28;20601;-73
2021/08/21 12:06:50;;;;;;;7.10;6.40;;;;;;;;;;5076651;28;20431;-73
2021/08/21 12:09:18;;;;;;;6.63;6.03;;;;;;;;;;5076963;28;20444;-74
2021/08/21 12:11:48;;;;;;;7.87;5.97;;;;;;;;;;5075997;28;20445;-74
2021/08/21 12:14:16;;;;;;;9.30;7.17;;;;;;;;;;5076509;28;20447;-74
2021/08/21 12:16:43;;;;;;;8.93;6.80;;;;;;;;;;5076649;28;20825;-73
2021/08/21 12:19:11;;;;;;;7.50;6.37;;;;;;;;;;5076654;28;20805;-74
2021/08/21 12:21:39;;;;;;;10.03;6.77;;;;;;;;;;5076251;28;20491;-73
2021/08/21 12:24:08;;;;;;;8.10;5.97;;;;;;;;;;5076766;28;20561;-73
2021/08/21 12:26:36;;;;;;;10.10;6.70;;;;;;;;;;5085735;28;20435;-74
2021/08/21 12:29:05;;;;;;;8.70;7.67;;;;;;;;;;5095701;28;20538;-74
2021/08/21 12:31:36;;;;;;;7.93;7.20;;;;;;;;;;5096079;28;20819;-73
2021/08/21 12:34:03;;;;;;;8.70;6.43;;;;;;;;;;5095976;28;20479;-73
2021/08/21 12:36:31;;;;;;;9.00;5.73;;;;;;;;;;5096415;28;20523;-72
2021/08/21 12:39:06;;;;;;;6.87;6.17;;;;;;;;;;5095959;28;20502;-73
2021/08/21 12:41:34;;;;;;;14.07;7.83;;;;;;;;;;5096419;28;20480;-73
2021/08/21 12:44:07;;;;;;;7.10;6.40;;;;;;;;;;5095980;28;20527;-73
2021/08/21 12:46:34;;;;;;;8.10;6.47;;;;;;;;;;5095545;28;20435;-72
2021/08/21 12:49:08;;;;;;;6.53;5.93;;;;;;;;;;5095222;28;20502;-72
2021/08/21 12:51:40;;;;;;;7.07;6.37;;;;;;;;;;5095691;28;20875;-76
2021/08/21 12:54:08;;;;;;;7.10;5.90;;;;;;;;;;5095990;28;20422;-72
2021/08/21 12:56:35;;;;;;;6.87;5.23;;;;;;;;;;5096014;28;20436;-72
2021/08/21 12:59:11;;;;;;;6.73;4.30;;;;;;;;;;5095970;28;20436;-72
2021/08/21 13:01:38;;;;;;;5.27;4.23;;;;;;;;;;5095935;28;20491;-72
2021/08/21 13:04:06;;;;;;;4.30;3.90;;;;;;;;;;5095898;28;20929;-71
2021/08/21 13:06:33;;;;;;;4.33;3.93;;;;;;;;;;5095535;28;20796;-70
2021/08/21 13:09:00;;;;;;;4.57;4.17;;;;;;;;;;5095307;28;21001;-70
2021/08/21 13:11:28;;;;;;;4.87;3.77;;;;;;;;;;5096070;28;20449;-70
2021/08/21 13:13:55;;;;;;;3.97;3.67;;;;;;;;;;5095463;28;20441;-72
2021/08/21 13:16:23;;;;;;;6.50;4.87;;;;;;;;;;5095336;28;20435;-71
2021/08/21 13:18:53;;;;;;;5.30;4.30;;;;;;;;;;5095376;28;20446;-71
2021/08/21 13:21:26;;;;;;;4.67;4.27;;;;;;;;;;5095191;28;20557;-71
2021/08/21 13:24:00;;;;;;;8.07;4.33;;;;;;;;;;5095904;28;20474;-72
2021/08/21 13:26:27;;;;;;;6.30;4.10;;;;;;;;;;5095290;28;20516;-70
2021/08/21 13:28:54;;;;;;;3.70;3.33;;;;;;;;;;5095221;28;20442;-72
2021/08/21 13:31:21;;;;;;;4.03;3.50;;;;;;;;;;5095490;28;20499;-72
2021/08/21 13:33:50;;;;;;;5.17;4.47;;;;;;;;;;5095253;28;20496;-72
2021/08/21 13:36:17;;;;;;;4.77;4.27;;;;;;;;;;5095160;28;20447;-72
2021/08/21 13:38:44;;;;;;;2.50;2.30;;;;;;;;;;5095710;28;20443;-72
2021/08/21 13:41:12;;;;;;;3.40;3.10;;;;;;;;;;5094266;28;20468;-71
2021/08/21 13:43:39;;;;;;;3.47;2.57;;;;;;;;;;5095114;28;20439;-71
2021/08/21 13:46:07;;;;;;;7.00;3.40;;;;;;;;;;5095019;28;20449;-72
2021/08/21 13:48:34;;;;;;;2.97;2.60;;;;;;;;;;5094930;28;20439;-72
2021/08/21 13:51:03;;;;;;;4.00;3.70;;;;;;;;;;5094880;28;20956;-72
2021/08/21 13:53:30;;;;;;;3.80;3.40;;;;;;;;;;5094550;28;20916;-72
2021/08/21 13:55:57;;;;;;;2.77;2.57;;;;;;;;;;5095291;28;20442;-72
2021/08/21 13:58:24;;;;;;;2.80;2.60;;;;;;;;;;5095077;28;20417;-71
2021/08/21 14:00:51;;;;;;;4.90;2.63;;;;;;;;;;5095199;28;20445;-71
2021/08/21 14:03:19;;;;;;;2.43;2.23;;;;;;;;;;5094381;28;20490;-71
2021/08/21 14:05:46;;;;;;;3.50;2.87;;;;;;;;;;5094478;28;20532;-72
2021/08/21 14:08:14;;;;;;;3.03;2.73;;;;;;;;;;5095020;28;20444;-71
2021/08/21 14:10:42;;;;;;;4.20;3.40;;;;;;;;;;5094139;28;20437;-72
2021/08/21 14:13:09;;;;;;;3.50;3.20;;;;;;;;;;5094415;28;20425;-70
2021/08/21 14:15:36;;;;;;;6.50;2.90;;;;;;;;;;5094579;28;20436;-72
2021/08/21 14:18:05;;;;;;;4.17;2.87;;;;;;;;;;5094756;28;20920;-74
2021/08/21 14:20:34;;;;;;;6.43;3.57;;;;;;;;;;5094409;28;20805;-75
2021/08/21 14:23:02;;;;;;;3.23;2.90;;;;;;;;;;5094437;28;20586;-74
2021/08/21 14:25:30;;;;;;;4.47;4.07;;;;;;;;;;5094813;28;20453;-71
2021/08/21 14:27:57;;;;;;;4.03;3.63;;;;;;;;;;5094906;28;20441;-71
2021/08/21 14:30:25;;;;;;;4.00;3.60;;;;;;;;;;5094365;28;20448;-72